sensor_id;sensor_type;location;lat;lon;timestamp;P1;durP1;ratioP1;P2;durP2;ratioP2
16862;SDS011;52193;48.216;-1.698;2022-11-15T00:02:10;4.75;;;2.55;;
16862;SDS011;52193;48.216;-1.698;2022-11-15T00:04:37;5.80;;;2.50;;
16862;SDS011;52193;48.216;-1.698;2022-11-15T00:07:05;4.93;;;2.60;;
16862;SDS011;52193;48.216;-1.698;2022-11-15T00:09:32;5.65;;;2.80;;
16862;SDS011;52193;48.216;-1.698;2022-11-15T00:11:59;5.20;;;2.42;;
16862;SDS011;52193;48.216;-1.698;2022-11-15T00:14:26;5.47;;;2.53;;
16862;SDS011;52193;48.216;-1.698;2022-11-15T00:16:53;5.93;;;2.58;;
16862;SDS011;52193;48.216;-1.698;2022-11-15T00:19:20;5.45;;;2.60;;
16862;SDS011;52193;48.216;-1.698;2022-11-15T00:21:47;7.13;;;2.70;;
16862;SDS011;52193;48.216;-1.698;2022-11-15T00:24:15;6.00;;;2.63;;
16862;SDS011;52193;48.216;-1.698;2022-11-15T00:26:42;5.35;;;2.60;;
16862;SDS011;52193;48.216;-1.698;2022-11-15T00:29:09;5.28;;;2.55;;
16862;SDS011;52193;48.216;-1.698;2022-11-15T00:31:36;6.05;;;2.60;;
16862;SDS011;52193;48.216;-1.698;2022-11-15T00:34:03;6.60;;;2.72;;
16862;SDS011;52193;48.216;-1.698;2022-11-15T00:36:32;6.78;;;3.17;;
16862;SDS011;52193;48.216;-1.698;2022-11-15T00:38:59;6.53;;;3.08;;
16862;SDS011;52193;48.216;-1.698;2022-11-15T00:41:28;7.45;;;3.00;;
16862;SDS011;52193;48.216;-1.698;2022-11-15T00:43:55;6.38;;;2.85;;
16862;SDS011;52193;48.216;-1.698;2022-11-15T00:46:22;4.75;;;2.63;;
16862;SDS011;52193;48.216;-1.698;2022-11-15T00:48:48;6.43;;;2.92;;
16862;SDS011;52193;48.216;-1.698;2022-11-15T00:51:15;6.13;;;2.92;;
16862;SDS011;52193;48.216;-1.698;2022-11-15T00:53:42;6.10;;;2.60;;
16862;SDS011;52193;48.216;-1.698;2022-11-15T00:56:09;9.18;;;2.92;;
16862;SDS011;52193;48.216;-1.698;2022-11-15T00:58:38;6.70;;;3.10;;
16862;SDS011;52193;48.216;-1.698;2022-11-15T01:01:05;7.20;;;3.00;;
16862;SDS011;52193;48.216;-1.698;2022-11-15T01:03:34;7.28;;;2.70;;
16862;SDS011;52193;48.216;-1.698;2022-11-15T01:06:01;6.35;;;2.90;;
16862;SDS011;52193;48.216;-1.698;2022-11-15T01:08:28;5.82;;;2.72;;
16862;SDS011;52193;48.216;-1.698;2022-11-15T01:10:59;5.85;;;2.80;;
16862;SDS011;52193;48.216;-1.698;2022-11-15T01:13:29;6.18;;;2.75;;
16862;SDS011;52193;48.216;-1.698;2022-11-15T01:15:58;6.40;;;2.80;;
16862;SDS011;52193;48.216;-1.698;2022-11-15T01:18:25;8.20;;;2.70;;
16862;SDS011;52193;48.216;-1.698;2022-11-15T01:20:52;8.18;;;2.70;;
16862;SDS011;52193;48.216;-1.698;2022-11-15T01:23:19;7.43;;;3.03;;
16862;SDS011;52193;48.216;-1.698;2022-11-15T01:25:46;7.57;;;2.60;;
16862;SDS011;52193;48.216;-1.698;2022-11-15T01:28:13;6.18;;;2.90;;
16862;SDS011;52193;48.216;-1.698;2022-11-15T01:30:40;6.07;;;2.60;;
16862;SDS011;52193;48.216;-1.698;2022-11-15T01:33:08;6.35;;;2.70;;
16862;SDS011;52193;48.216;-1.698;2022-11-15T01:35:37;7.25;;;2.55;;
16862;SDS011;52193;48.216;-1.698;2022-11-15T01:38:05;6.80;;;2.47;;
16862;SDS011;52193;48.216;-1.698;2022-11-15T01:40:32;7.68;;;2.65;;
16862;SDS011;52193;48.216;-1.698;2022-11-15T01:42:59;7.55;;;2.67;;
16862;SDS011;52193;48.216;-1.698;2022-11-15T01:45:25;6.03;;;2.55;;
16862;SDS011;52193;48.216;-1.698;2022-11-15T01:47:53;7.72;;;2.72;;
16862;SDS011;52193;48.216;-1.698;2022-11-15T01:50:23;6.57;;;2.60;;
16862;SDS011;52193;48.216;-1.698;2022-11-15T01:52:55;6.20;;;2.67;;
16862;SDS011;52193;48.216;-1.698;2022-11-15T01:55:22;7.10;;;2.47;;
16862;SDS011;52193;48.216;-1.698;2022-11-15T01:57:53;6.60;;;2.40;;
16862;SDS011;52193;48.216;-1.698;2022-11-15T02:00:23;7.38;;;2.33;;
16862;SDS011;52193;48.216;-1.698;2022-11-15T02:02:50;6.65;;;2.60;;
16862;SDS011;52193;48.216;-1.698;2022-11-15T02:05:17;5.38;;;2.28;;
16862;SDS011;52193;48.216;-1.698;2022-11-15T02:07:45;7.13;;;2.47;;
16862;SDS011;52193;48.216;-1.698;2022-11-15T02:10:16;6.40;;;2.67;;
16862;SDS011;52193;48.216;-1.698;2022-11-15T02:12:45;7.65;;;2.47;;
16862;SDS011;52193;48.216;-1.698;2022-11-15T02:15:13;7.13;;;2.30;;
16862;SDS011;52193;48.216;-1.698;2022-11-15T02:17:48;7.05;;;2.58;;
16862;SDS011;52193;48.216;-1.698;2022-11-15T02:29:30;7.10;;;2.35;;
16862;SDS011;52193;48.216;-1.698;2022-11-15T02:32:07;6.75;;;2.30;;
16862;SDS011;52193;48.216;-1.698;2022-11-15T02:34:42;6.53;;;2.40;;
16862;SDS011;52193;48.216;-1.698;2022-11-15T02:37:20;6.45;;;2.50;;
16862;SDS011;52193;48.216;-1.698;2022-11-15T02:39:57;8.55;;;2.40;;
16862;SDS011;52193;48.216;-1.698;2022-11-15T02:42:31;7.18;;;2.35;;
16862;SDS011;52193;48.216;-1.698;2022-11-15T02:45:21;7.15;;;2.38;;
16862;SDS011;52193;48.216;-1.698;2022-11-15T02:47:54;4.97;;;2.20;;
16862;SDS011;52193;48.216;-1.698;2022-11-15T02:50:25;6.13;;;2.50;;
16862;SDS011;52193;48.216;-1.698;2022-11-15T02:52:55;6.40;;;2.35;;
16862;SDS011;52193;48.216;-1.698;2022-11-15T02:55:26;5.97;;;2.20;;
16862;SDS011;52193;48.216;-1.698;2022-11-15T02:58:00;6.45;;;2.40;;
16862;SDS011;52193;48.216;-1.698;2022-11-15T03:00:50;7.40;;;2.40;;
16862;SDS011;52193;48.216;-1.698;2022-11-15T03:03:30;6.25;;;2.40;;
16862;SDS011;52193;48.216;-1.698;2022-11-15T03:06:15;6.00;;;2.17;;
16862;SDS011;52193;48.216;-1.698;2022-11-15T03:08:56;7.53;;;2.35;;
16862;SDS011;52193;48.216;-1.698;2022-11-15T03:11:29;5.90;;;2.20;;
16862;SDS011;52193;48.216;-1.698;2022-11-15T03:14:06;6.10;;;2.08;;
16862;SDS011;52193;48.216;-1.698;2022-11-15T03:16:41;6.88;;;2.20;;
16862;SDS011;52193;48.216;-1.698;2022-11-15T03:19:16;5.35;;;2.17;;
16862;SDS011;52193;48.216;-1.698;2022-11-15T03:21:48;6.93;;;2.30;;
16862;SDS011;52193;48.216;-1.698;2022-11-15T03:24:17;7.13;;;2.40;;
16862;SDS011;52193;48.216;-1.698;2022-11-15T03:26:47;6.05;;;2.30;;
16862;SDS011;52193;48.216;-1.698;2022-11-15T03:29:16;5.83;;;2.20;;
16862;SDS011;52193;48.216;-1.698;2022-11-15T03:31:47;5.90;;;2.35;;
16862;SDS011;52193;48.216;-1.698;2022-11-15T03:34:22;5.75;;;2.17;;
16862;SDS011;52193;48.216;-1.698;2022-11-15T03:36:53;5.37;;;1.83;;
16862;SDS011;52193;48.216;-1.698;2022-11-15T03:39:21;7.03;;;2.20;;
16862;SDS011;52193;48.216;-1.698;2022-11-15T03:41:50;7.20;;;2.38;;
16862;SDS011;52193;48.216;-1.698;2022-11-15T03:44:27;7.28;;;2.40;;
16862;SDS011;52193;48.216;-1.698;2022-11-15T03:47:03;5.60;;;2.00;;
16862;SDS011;52193;48.216;-1.698;2022-11-15T03:49:38;7.07;;;2.33;;
16862;SDS011;52193;48.216;-1.698;2022-11-15T03:52:10;6.20;;;2.13;;
16862;SDS011;52193;48.216;-1.698;2022-11-15T03:54:47;6.60;;;2.17;;
16862;SDS011;52193;48.216;-1.698;2022-11-15T03:57:15;5.32;;;2.20;;
16862;SDS011;52193;48.216;-1.698;2022-11-15T03:59:43;5.75;;;1.90;;
16862;SDS011;52193;48.216;-1.698;2022-11-15T04:02:10;6.25;;;2.25;;
16862;SDS011;52193;48.216;-1.698;2022-11-15T04:04:39;5.60;;;1.95;;
16862;SDS011;52193;48.216;-1.698;2022-11-15T04:07:06;5.97;;;2.20;;
16862;SDS011;52193;48.216;-1.698;2022-11-15T04:09:33;5.97;;;2.10;;
16862;SDS011;52193;48.216;-1.698;2022-11-15T04:12:20;7.17;;;2.47;;
16862;SDS011;52193;48.216;-1.698;2022-11-15T04:14:55;7.28;;;2.33;;
16862;SDS011;52193;48.216;-1.698;2022-11-15T04:17:33;7.05;;;2.13;;
16862;SDS011;52193;48.216;-1.698;2022-11-15T04:20:03;5.90;;;2.20;;
16862;SDS011;52193;48.216;-1.698;2022-11-15T04:22:48;6.22;;;2.47;;
16862;SDS011;52193;48.216;-1.698;2022-11-15T04:25:35;5.53;;;1.90;;
16862;SDS011;52193;48.216;-1.698;2022-11-15T04:28:02;6.07;;;2.10;;
16862;SDS011;52193;48.216;-1.698;2022-11-15T04:30:29;5.85;;;2.38;;
16862;SDS011;52193;48.216;-1.698;2022-11-15T04:32:56;6.43;;;2.30;;
16862;SDS011;52193;48.216;-1.698;2022-11-15T04:35:24;6.25;;;2.53;;
16862;SDS011;52193;48.216;-1.698;2022-11-15T04:37:51;6.05;;;2.10;;
16862;SDS011;52193;48.216;-1.698;2022-11-15T04:40:17;6.53;;;2.05;;
16862;SDS011;52193;48.216;-1.698;2022-11-15T04:42:44;7.73;;;2.30;;
16862;SDS011;52193;48.216;-1.698;2022-11-15T04:45:11;6.13;;;2.03;;
16862;SDS011;52193;48.216;-1.698;2022-11-15T04:47:38;6.35;;;2.20;;
16862;SDS011;52193;48.216;-1.698;2022-11-15T04:50:05;5.90;;;2.50;;
16862;SDS011;52193;48.216;-1.698;2022-11-15T04:52:34;7.78;;;2.30;;
16862;SDS011;52193;48.216;-1.698;2022-11-15T04:55:01;6.53;;;2.22;;
16862;SDS011;52193;48.216;-1.698;2022-11-15T04:57:28;5.70;;;1.98;;
16862;SDS011;52193;48.216;-1.698;2022-11-15T04:59:55;5.60;;;2.17;;
16862;SDS011;52193;48.216;-1.698;2022-11-15T05:02:22;6.43;;;2.15;;
16862;SDS011;52193;48.216;-1.698;2022-11-15T05:04:49;6.57;;;2.23;;
16862;SDS011;52193;48.216;-1.698;2022-11-15T05:07:15;7.13;;;2.38;;
16862;SDS011;52193;48.216;-1.698;2022-11-15T05:09:43;6.43;;;2.22;;
16862;SDS011;52193;48.216;-1.698;2022-11-15T05:12:10;8.52;;;2.47;;
16862;SDS011;52193;48.216;-1.698;2022-11-15T05:14:37;6.27;;;2.20;;
16862;SDS011;52193;48.216;-1.698;2022-11-15T05:17:04;5.95;;;2.40;;
16862;SDS011;52193;48.216;-1.698;2022-11-15T05:19:31;7.47;;;2.45;;
16862;SDS011;52193;48.216;-1.698;2022-11-15T05:21:57;6.07;;;2.33;;
16862;SDS011;52193;48.216;-1.698;2022-11-15T05:24:24;6.72;;;2.30;;
16862;SDS011;52193;48.216;-1.698;2022-11-15T05:26:53;4.28;;;1.80;;
16862;SDS011;52193;48.216;-1.698;2022-11-15T05:29:20;8.05;;;2.30;;
16862;SDS011;52193;48.216;-1.698;2022-11-15T05:31:47;5.70;;;2.07;;
16862;SDS011;52193;48.216;-1.698;2022-11-15T05:34:14;5.65;;;2.00;;
16862;SDS011;52193;48.216;-1.698;2022-11-15T05:36:42;5.82;;;2.35;;
16862;SDS011;52193;48.216;-1.698;2022-11-15T05:39:10;5.68;;;2.03;;
16862;SDS011;52193;48.216;-1.698;2022-11-15T05:41:38;6.47;;;2.35;;
16862;SDS011;52193;48.216;-1.698;2022-11-15T05:44:11;5.85;;;2.13;;
16862;SDS011;52193;48.216;-1.698;2022-11-15T05:46:40;5.32;;;2.10;;
16862;SDS011;52193;48.216;-1.698;2022-11-15T05:49:09;4.78;;;2.08;;
16862;SDS011;52193;48.216;-1.698;2022-11-15T05:51:38;6.28;;;2.60;;
16862;SDS011;52193;48.216;-1.698;2022-11-15T05:54:07;8.10;;;2.40;;
16862;SDS011;52193;48.216;-1.698;2022-11-15T05:56:35;5.88;;;2.30;;
16862;SDS011;52193;48.216;-1.698;2022-11-15T05:59:02;6.90;;;2.40;;
16862;SDS011;52193;48.216;-1.698;2022-11-15T06:01:31;6.28;;;2.20;;
16862;SDS011;52193;48.216;-1.698;2022-11-15T06:03:58;5.93;;;2.30;;
16862;SDS011;52193;48.216;-1.698;2022-11-15T06:06:26;5.25;;;2.40;;
16862;SDS011;52193;48.216;-1.698;2022-11-15T06:08:54;4.63;;;2.15;;
16862;SDS011;52193;48.216;-1.698;2022-11-15T06:11:20;5.50;;;2.30;;
16862;SDS011;52193;48.216;-1.698;2022-11-15T06:13:47;3.63;;;2.03;;
16862;SDS011;52193;48.216;-1.698;2022-11-15T06:16:14;4.65;;;2.20;;
16862;SDS011;52193;48.216;-1.698;2022-11-15T06:18:43;4.63;;;2.15;;
16862;SDS011;52193;48.216;-1.698;2022-11-15T06:21:10;4.63;;;2.30;;
16862;SDS011;52193;48.216;-1.698;2022-11-15T06:23:36;7.00;;;2.50;;
16862;SDS011;52193;48.216;-1.698;2022-11-15T06:26:03;6.85;;;2.42;;
16862;SDS011;52193;48.216;-1.698;2022-11-15T06:28:31;5.33;;;2.40;;
16862;SDS011;52193;48.216;-1.698;2022-11-15T06:31:02;4.55;;;2.20;;
16862;SDS011;52193;48.216;-1.698;2022-11-15T06:33:29;6.30;;;2.40;;
16862;SDS011;52193;48.216;-1.698;2022-11-15T06:36:00;5.10;;;2.38;;
16862;SDS011;52193;48.216;-1.698;2022-11-15T06:38:27;4.85;;;2.03;;
16862;SDS011;52193;48.216;-1.698;2022-11-15T06:40:54;5.80;;;2.33;;
16862;SDS011;52193;48.216;-1.698;2022-11-15T06:43:26;5.22;;;2.20;;
16862;SDS011;52193;48.216;-1.698;2022-11-15T06:45:53;4.20;;;2.28;;
16862;SDS011;52193;48.216;-1.698;2022-11-15T06:48:20;5.82;;;2.40;;
16862;SDS011;52193;48.216;-1.698;2022-11-15T06:50:50;4.60;;;2.23;;
16862;SDS011;52193;48.216;-1.698;2022-11-15T06:53:18;4.93;;;2.20;;
16862;SDS011;52193;48.216;-1.698;2022-11-15T06:55:45;5.72;;;2.58;;
16862;SDS011;52193;48.216;-1.698;2022-11-15T06:58:12;6.80;;;2.47;;
16862;SDS011;52193;48.216;-1.698;2022-11-15T07:00:39;5.63;;;2.40;;
16862;SDS011;52193;48.216;-1.698;2022-11-15T07:03:06;5.55;;;2.60;;
16862;SDS011;52193;48.216;-1.698;2022-11-15T07:05:33;5.15;;;2.53;;
16862;SDS011;52193;48.216;-1.698;2022-11-15T07:08:01;5.40;;;2.42;;
16862;SDS011;52193;48.216;-1.698;2022-11-15T07:10:29;6.22;;;2.60;;
16862;SDS011;52193;48.216;-1.698;2022-11-15T07:12:56;4.85;;;2.63;;
16862;SDS011;52193;48.216;-1.698;2022-11-15T07:15:24;4.93;;;2.60;;
16862;SDS011;52193;48.216;-1.698;2022-11-15T07:17:52;5.55;;;2.55;;
16862;SDS011;52193;48.216;-1.698;2022-11-15T07:20:19;4.10;;;2.38;;
16862;SDS011;52193;48.216;-1.698;2022-11-15T07:22:46;3.58;;;2.30;;
16862;SDS011;52193;48.216;-1.698;2022-11-15T07:25:12;5.00;;;2.58;;
16862;SDS011;52193;48.216;-1.698;2022-11-15T07:27:41;5.72;;;2.65;;
16862;SDS011;52193;48.216;-1.698;2022-11-15T07:30:08;2.70;;;1.98;;
16862;SDS011;52193;48.216;-1.698;2022-11-15T07:32:36;4.43;;;2.20;;
16862;SDS011;52193;48.216;-1.698;2022-11-15T07:35:03;3.60;;;2.33;;
16862;SDS011;52193;48.216;-1.698;2022-11-15T07:37:30;4.40;;;2.17;;
16862;SDS011;52193;48.216;-1.698;2022-11-15T07:39:57;3.42;;;2.28;;
16862;SDS011;52193;48.216;-1.698;2022-11-15T07:42:24;2.75;;;1.80;;
16862;SDS011;52193;48.216;-1.698;2022-11-15T07:45:10;2.55;;;1.90;;
16862;SDS011;52193;48.216;-1.698;2022-11-15T07:47:37;3.17;;;2.03;;
16862;SDS011;52193;48.216;-1.698;2022-11-15T07:50:04;3.08;;;2.00;;
16862;SDS011;52193;48.216;-1.698;2022-11-15T07:52:31;3.42;;;1.95;;
16862;SDS011;52193;48.216;-1.698;2022-11-15T07:54:58;3.20;;;2.10;;
16862;SDS011;52193;48.216;-1.698;2022-11-15T07:57:25;3.50;;;2.17;;
16862;SDS011;52193;48.216;-1.698;2022-11-15T07:59:52;2.60;;;1.85;;
16862;SDS011;52193;48.216;-1.698;2022-11-15T08:02:21;3.55;;;2.10;;
16862;SDS011;52193;48.216;-1.698;2022-11-15T08:04:47;3.10;;;1.92;;
16862;SDS011;52193;48.216;-1.698;2022-11-15T08:07:14;2.60;;;1.80;;
16862;SDS011;52193;48.216;-1.698;2022-11-15T08:09:41;2.85;;;2.05;;
16862;SDS011;52193;48.216;-1.698;2022-11-15T08:12:08;3.40;;;1.90;;
16862;SDS011;52193;48.216;-1.698;2022-11-15T08:14:35;3.88;;;2.13;;
16862;SDS011;52193;48.216;-1.698;2022-11-15T08:17:02;3.90;;;1.90;;
16862;SDS011;52193;48.216;-1.698;2022-11-15T08:19:30;2.07;;;1.80;;
16862;SDS011;52193;48.216;-1.698;2022-11-15T08:21:57;3.20;;;2.03;;
16862;SDS011;52193;48.216;-1.698;2022-11-15T08:24:24;3.63;;;1.70;;
16862;SDS011;52193;48.216;-1.698;2022-11-15T08:26:51;3.42;;;1.70;;
16862;SDS011;52193;48.216;-1.698;2022-11-15T08:29:18;2.20;;;2.00;;
16862;SDS011;52193;48.216;-1.698;2022-11-15T08:31:45;2.00;;;1.60;;
16862;SDS011;52193;48.216;-1.698;2022-11-15T08:34:12;3.17;;;1.60;;
16862;SDS011;52193;48.216;-1.698;2022-11-15T08:36:40;1.37;;;1.20;;
16862;SDS011;52193;48.216;-1.698;2022-11-15T08:39:09;1.87;;;1.50;;
16862;SDS011;52193;48.216;-1.698;2022-11-15T08:41:37;2.67;;;1.48;;
16862;SDS011;52193;48.216;-1.698;2022-11-15T08:44:04;1.70;;;1.20;;
16862;SDS011;52193;48.216;-1.698;2022-11-15T08:46:31;1.80;;;1.40;;
16862;SDS011;52193;48.216;-1.698;2022-11-15T08:48:58;2.10;;;1.10;;
16862;SDS011;52193;48.216;-1.698;2022-11-15T08:51:25;2.55;;;1.45;;
16862;SDS011;52193;48.216;-1.698;2022-11-15T08:53:53;1.30;;;1.17;;
16862;SDS011;52193;48.216;-1.698;2022-11-15T08:56:20;1.83;;;1.45;;
16862;SDS011;52193;48.216;-1.698;2022-11-15T08:58:47;1.90;;;1.38;;
16862;SDS011;52193;48.216;-1.698;2022-11-15T09:01:15;1.70;;;1.60;;
16862;SDS011;52193;48.216;-1.698;2022-11-15T09:03:43;2.85;;;1.60;;
16862;SDS011;52193;48.216;-1.698;2022-11-15T09:06:10;1.60;;;1.37;;
16862;SDS011;52193;48.216;-1.698;2022-11-15T09:08:38;1.80;;;1.70;;
16862;SDS011;52193;48.216;-1.698;2022-11-15T09:11:07;2.50;;;1.70;;
16862;SDS011;52193;48.216;-1.698;2022-11-15T09:13:35;2.33;;;1.50;;
16862;SDS011;52193;48.216;-1.698;2022-11-15T09:16:03;3.00;;;1.45;;
16862;SDS011;52193;48.216;-1.698;2022-11-15T09:18:30;3.05;;;1.63;;
16862;SDS011;52193;48.216;-1.698;2022-11-15T09:20:58;2.28;;;1.63;;
16862;SDS011;52193;48.216;-1.698;2022-11-15T09:23:25;3.80;;;1.90;;
16862;SDS011;52193;48.216;-1.698;2022-11-15T09:25:57;3.87;;;1.87;;
16862;SDS011;52193;48.216;-1.698;2022-11-15T09:28:26;3.50;;;1.70;;
16862;SDS011;52193;48.216;-1.698;2022-11-15T09:30:55;3.08;;;1.88;;
16862;SDS011;52193;48.216;-1.698;2022-11-15T09:33:24;4.25;;;2.20;;
16862;SDS011;52193;48.216;-1.698;2022-11-15T09:35:51;5.05;;;2.60;;
16862;SDS011;52193;48.216;-1.698;2022-11-15T09:38:18;4.35;;;2.60;;
16862;SDS011;52193;48.216;-1.698;2022-11-15T09:40:46;3.50;;;2.10;;
16862;SDS011;52193;48.216;-1.698;2022-11-15T09:43:24;4.93;;;2.13;;
16862;SDS011;52193;48.216;-1.698;2022-11-15T09:46:01;3.63;;;2.03;;
16862;SDS011;52193;48.216;-1.698;2022-11-15T09:48:47;4.93;;;2.10;;
16862;SDS011;52193;48.216;-1.698;2022-11-15T09:51:20;4.95;;;2.25;;
16862;SDS011;52193;48.216;-1.698;2022-11-15T09:53:56;4.85;;;2.10;;
16862;SDS011;52193;48.216;-1.698;2022-11-15T09:56:27;4.55;;;2.38;;
16862;SDS011;52193;48.216;-1.698;2022-11-15T09:59:01;5.70;;;2.10;;
16862;SDS011;52193;48.216;-1.698;2022-11-15T10:01:41;5.65;;;2.38;;
16862;SDS011;52193;48.216;-1.698;2022-11-15T10:04:13;5.35;;;2.30;;
16862;SDS011;52193;48.216;-1.698;2022-11-15T10:06:43;4.43;;;2.10;;
16862;SDS011;52193;48.216;-1.698;2022-11-15T10:09:17;4.70;;;2.13;;
16862;SDS011;52193;48.216;-1.698;2022-11-15T10:11:49;6.00;;;2.42;;
16862;SDS011;52193;48.216;-1.698;2022-11-15T10:14:18;3.92;;;2.03;;
16862;SDS011;52193;48.216;-1.698;2022-11-15T10:16:58;4.10;;;2.17;;
16862;SDS011;52193;48.216;-1.698;2022-11-15T10:19:38;4.85;;;2.92;;
16862;SDS011;52193;48.216;-1.698;2022-11-15T10:22:17;4.50;;;2.90;;
16862;SDS011;52193;48.216;-1.698;2022-11-15T10:24:52;3.00;;;2.10;;
16862;SDS011;52193;48.216;-1.698;2022-11-15T10:27:38;4.00;;;2.08;;
16862;SDS011;52193;48.216;-1.698;2022-11-15T10:30:10;3.05;;;1.85;;
16862;SDS011;52193;48.216;-1.698;2022-11-15T10:32:40;2.37;;;1.80;;
16862;SDS011;52193;48.216;-1.698;2022-11-15T10:35:16;3.17;;;1.73;;
16862;SDS011;52193;48.216;-1.698;2022-11-15T10:37:47;3.80;;;1.95;;
16862;SDS011;52193;48.216;-1.698;2022-11-15T10:40:15;1.90;;;1.65;;
16862;SDS011;52193;48.216;-1.698;2022-11-15T10:42:44;3.95;;;1.70;;
16862;SDS011;52193;48.216;-1.698;2022-11-15T10:45:24;3.70;;;1.92;;
16862;SDS011;52193;48.216;-1.698;2022-11-15T10:47:53;5.53;;;2.60;;
16862;SDS011;52193;48.216;-1.698;2022-11-15T10:50:27;4.63;;;2.50;;
16862;SDS011;52193;48.216;-1.698;2022-11-15T10:52:55;4.45;;;2.60;;
16862;SDS011;52193;48.216;-1.698;2022-11-15T10:55:26;4.85;;;2.38;;
16862;SDS011;52193;48.216;-1.698;2022-11-15T10:57:56;5.38;;;2.50;;
16862;SDS011;52193;48.216;-1.698;2022-11-15T11:00:32;4.97;;;2.40;;
16862;SDS011;52193;48.216;-1.698;2022-11-15T11:03:02;5.68;;;2.55;;
16862;SDS011;52193;48.216;-1.698;2022-11-15T11:05:33;5.60;;;2.30;;
16862;SDS011;52193;48.216;-1.698;2022-11-15T11:08:03;6.72;;;2.75;;
16862;SDS011;52193;48.216;-1.698;2022-11-15T11:10:51;5.93;;;2.50;;
16862;SDS011;52193;48.216;-1.698;2022-11-15T11:13:21;6.23;;;2.47;;
16862;SDS011;52193;48.216;-1.698;2022-11-15T11:15:53;6.78;;;2.70;;
16862;SDS011;52193;48.216;-1.698;2022-11-15T11:18:26;6.45;;;2.80;;
16862;SDS011;52193;48.216;-1.698;2022-11-15T11:20:59;7.13;;;3.10;;
16862;SDS011;52193;48.216;-1.698;2022-11-15T11:23:36;7.50;;;3.10;;
16862;SDS011;52193;48.216;-1.698;2022-11-15T11:26:15;7.80;;;2.85;;
16862;SDS011;52193;48.216;-1.698;2022-11-15T11:29:01;8.33;;;2.83;;
16862;SDS011;52193;48.216;-1.698;2022-11-15T11:31:38;6.90;;;2.78;;
16862;SDS011;52193;48.216;-1.698;2022-11-15T11:34:15;7.43;;;2.90;;
16862;SDS011;52193;48.216;-1.698;2022-11-15T11:36:48;8.00;;;3.20;;
16862;SDS011;52193;48.216;-1.698;2022-11-15T11:39:23;8.35;;;3.10;;
16862;SDS011;52193;48.216;-1.698;2022-11-15T11:41:56;7.67;;;3.03;;
16862;SDS011;52193;48.216;-1.698;2022-11-15T11:44:34;8.95;;;3.30;;
16862;SDS011;52193;48.216;-1.698;2022-11-15T11:47:11;7.30;;;2.73;;
16862;SDS011;52193;48.216;-1.698;2022-11-15T11:49:44;6.55;;;2.50;;
16862;SDS011;52193;48.216;-1.698;2022-11-15T11:52:16;9.40;;;2.72;;
16862;SDS011;52193;48.216;-1.698;2022-11-15T11:54:50;6.55;;;2.50;;
16862;SDS011;52193;48.216;-1.698;2022-11-15T11:57:35;7.32;;;2.47;;
16862;SDS011;52193;48.216;-1.698;2022-11-15T12:00:14;6.35;;;2.70;;
16862;SDS011;52193;48.216;-1.698;2022-11-15T12:02:47;7.65;;;2.70;;
16862;SDS011;52193;48.216;-1.698;2022-11-15T12:05:34;6.13;;;2.72;;
16862;SDS011;52193;48.216;-1.698;2022-11-15T12:08:17;8.07;;;3.88;;
16862;SDS011;52193;48.216;-1.698;2022-11-15T12:10:56;9.05;;;3.28;;
16862;SDS011;52193;48.216;-1.698;2022-11-15T12:13:28;5.78;;;2.50;;
16862;SDS011;52193;48.216;-1.698;2022-11-15T12:16:00;7.90;;;3.35;;
16862;SDS011;52193;48.216;-1.698;2022-11-15T12:18:35;5.95;;;3.10;;
16862;SDS011;52193;48.216;-1.698;2022-11-15T12:21:03;7.38;;;2.40;;
16862;SDS011;52193;48.216;-1.698;2022-11-15T12:23:37;6.65;;;2.50;;
16862;SDS011;52193;48.216;-1.698;2022-11-15T12:26:10;8.43;;;2.50;;
16862;SDS011;52193;48.216;-1.698;2022-11-15T12:28:44;6.07;;;2.80;;
16862;SDS011;52193;48.216;-1.698;2022-11-15T12:31:14;7.60;;;2.70;;
16862;SDS011;52193;48.216;-1.698;2022-11-15T12:33:47;6.70;;;2.65;;
16862;SDS011;52193;48.216;-1.698;2022-11-15T12:36:30;6.43;;;2.80;;
16862;SDS011;52193;48.216;-1.698;2022-11-15T12:39:01;8.45;;;2.97;;
16862;SDS011;52193;48.216;-1.698;2022-11-15T12:41:29;8.60;;;2.90;;
16862;SDS011;52193;48.216;-1.698;2022-11-15T12:43:57;8.38;;;2.88;;
16862;SDS011;52193;48.216;-1.698;2022-11-15T12:49:48;6.28;;;2.50;;
16862;SDS011;52193;48.216;-1.698;2022-11-15T12:52:16;8.43;;;3.25;;
16862;SDS011;52193;48.216;-1.698;2022-11-15T12:55:00;6.32;;;2.72;;
16862;SDS011;52193;48.216;-1.698;2022-11-15T12:57:32;7.22;;;2.70;;
16862;SDS011;52193;48.216;-1.698;2022-11-15T13:00:04;5.93;;;2.80;;
16862;SDS011;52193;48.216;-1.698;2022-11-15T13:02:47;6.43;;;2.45;;
16862;SDS011;52193;48.216;-1.698;2022-11-15T13:17:12;5.82;;;2.38;;
16862;SDS011;52193;48.216;-1.698;2022-11-15T13:19:54;5.40;;;2.15;;
16862;SDS011;52193;48.216;-1.698;2022-11-15T13:22:27;4.97;;;2.80;;
16862;SDS011;52193;48.216;-1.698;2022-11-15T13:25:14;5.45;;;2.30;;
16862;SDS011;52193;48.216;-1.698;2022-11-15T13:27:44;5.40;;;2.05;;
16862;SDS011;52193;48.216;-1.698;2022-11-15T13:30:13;5.53;;;2.30;;
16862;SDS011;52193;48.216;-1.698;2022-11-15T13:32:45;7.28;;;2.47;;
16862;SDS011;52193;48.216;-1.698;2022-11-15T13:35:17;7.70;;;2.70;;
16862;SDS011;52193;48.216;-1.698;2022-11-15T13:37:49;7.97;;;2.65;;
16862;SDS011;52193;48.216;-1.698;2022-11-15T13:40:20;6.95;;;2.60;;
16862;SDS011;52193;48.216;-1.698;2022-11-15T13:42:52;7.13;;;2.90;;
16862;SDS011;52193;48.216;-1.698;2022-11-15T13:45:19;6.20;;;2.50;;
16862;SDS011;52193;48.216;-1.698;2022-11-15T13:47:54;7.50;;;2.55;;
16862;SDS011;52193;48.216;-1.698;2022-11-15T13:50:25;6.15;;;1.92;;
16862;SDS011;52193;48.216;-1.698;2022-11-15T13:52:57;5.38;;;2.20;;
16862;SDS011;52193;48.216;-1.698;2022-11-15T13:55:27;6.37;;;2.23;;
16862;SDS011;52193;48.216;-1.698;2022-11-15T13:57:58;5.13;;;2.10;;
16862;SDS011;52193;48.216;-1.698;2022-11-15T14:00:32;5.00;;;2.17;;
16862;SDS011;52193;48.216;-1.698;2022-11-15T14:03:06;6.38;;;2.40;;
16862;SDS011;52193;48.216;-1.698;2022-11-15T14:05:39;5.63;;;2.30;;
16862;SDS011;52193;48.216;-1.698;2022-11-15T14:08:21;6.65;;;2.25;;
16862;SDS011;52193;48.216;-1.698;2022-11-15T14:10:49;6.18;;;2.47;;
16862;SDS011;52193;48.216;-1.698;2022-11-15T14:13:33;5.18;;;2.35;;
16862;SDS011;52193;48.216;-1.698;2022-11-15T14:16:12;5.60;;;2.13;;
16862;SDS011;52193;48.216;-1.698;2022-11-15T14:18:41;3.80;;;1.90;;
16862;SDS011;52193;48.216;-1.698;2022-11-15T14:21:09;4.25;;;1.80;;
16862;SDS011;52193;48.216;-1.698;2022-11-15T14:23:38;4.13;;;1.88;;
16862;SDS011;52193;48.216;-1.698;2022-11-15T14:26:05;5.30;;;2.17;;
16862;SDS011;52193;48.216;-1.698;2022-11-15T14:28:32;4.72;;;1.95;;
16862;SDS011;52193;48.216;-1.698;2022-11-15T14:31:04;4.30;;;1.83;;
16862;SDS011;52193;48.216;-1.698;2022-11-15T14:33:38;4.33;;;2.10;;
16862;SDS011;52193;48.216;-1.698;2022-11-15T14:36:06;4.70;;;1.90;;
16862;SDS011;52193;48.216;-1.698;2022-11-15T14:38:38;3.47;;;1.83;;
16862;SDS011;52193;48.216;-1.698;2022-11-15T14:41:08;4.22;;;1.80;;
16862;SDS011;52193;48.216;-1.698;2022-11-15T14:43:43;3.42;;;1.60;;
16862;SDS011;52193;48.216;-1.698;2022-11-15T14:46:10;4.85;;;1.80;;
16862;SDS011;52193;48.216;-1.698;2022-11-15T14:48:36;4.40;;;1.97;;
16862;SDS011;52193;48.216;-1.698;2022-11-15T14:51:08;5.72;;;1.98;;
16862;SDS011;52193;48.216;-1.698;2022-11-15T14:53:39;3.83;;;1.77;;
16862;SDS011;52193;48.216;-1.698;2022-11-15T14:56:06;6.50;;;2.08;;
16862;SDS011;52193;48.216;-1.698;2022-11-15T14:58:33;4.25;;;1.98;;
16862;SDS011;52193;48.216;-1.698;2022-11-15T15:01:01;4.43;;;1.80;;
16862;SDS011;52193;48.216;-1.698;2022-11-15T15:03:29;5.87;;;2.20;;
16862;SDS011;52193;48.216;-1.698;2022-11-15T15:05:56;4.22;;;1.80;;
16862;SDS011;52193;48.216;-1.698;2022-11-15T15:08:23;4.22;;;2.40;;
16862;SDS011;52193;48.216;-1.698;2022-11-15T15:10:51;3.20;;;2.10;;
16862;SDS011;52193;48.216;-1.698;2022-11-15T15:13:19;3.80;;;1.70;;
16862;SDS011;52193;48.216;-1.698;2022-11-15T15:15:48;4.63;;;1.90;;
16862;SDS011;52193;48.216;-1.698;2022-11-15T15:18:15;6.90;;;2.10;;